sensor_id;sensor_type;location;lat;lon;timestamp;P1;durP1;ratioP1;P2;durP2;ratioP2
43710;SDS011;29309;42.682;23.372;2023-05-07T00:01:08;5.72;;;2.78;;
43710;SDS011;29309;42.682;23.372;2023-05-07T00:03:33;4.78;;;3.05;;
43710;SDS011;29309;42.682;23.372;2023-05-07T00:05:59;6.78;;;3.42;;
43710;SDS011;29309;42.682;23.372;2023-05-07T00:08:25;7.25;;;3.13;;
43710;SDS011;29309;42.682;23.372;2023-05-07T00:10:51;6.15;;;3.45;;
43710;SDS011;29309;42.682;23.372;2023-05-07T00:13:16;7.10;;;3.08;;
43710;SDS011;29309;42.682;23.372;2023-05-07T00:15:41;5.15;;;2.60;;
43710;SDS011;29309;42.682;23.372;2023-05-07T00:18:07;5.40;;;2.67;;
43710;SDS011;29309;42.682;23.372;2023-05-07T00:20:32;5.07;;;2.97;;
43710;SDS011;29309;42.682;23.372;2023-05-07T00:22:58;4.80;;;2.95;;
43710;SDS011;29309;42.682;23.372;2023-05-07T00:25:23;5.45;;;2.40;;
43710;SDS011;29309;42.682;23.372;2023-05-07T00:27:49;3.97;;;2.53;;
43710;SDS011;29309;42.682;23.372;2023-05-07T00:30:14;3.63;;;2.25;;
43710;SDS011;29309;42.682;23.372;2023-05-07T00:32:40;6.05;;;2.97;;
43710;SDS011;29309;42.682;23.372;2023-05-07T00:35:05;6.85;;;2.72;;
43710;SDS011;29309;42.682;23.372;2023-05-07T00:37:31;4.43;;;2.80;;
43710;SDS011;29309;42.682;23.372;2023-05-07T00:39:57;4.05;;;2.40;;
43710;SDS011;29309;42.682;23.372;2023-05-07T00:42:22;5.10;;;3.08;;
43710;SDS011;29309;42.682;23.372;2023-05-07T00:44:49;5.30;;;2.80;;
43710;SDS011;29309;42.682;23.372;2023-05-07T00:47:15;6.00;;;2.90;;
43710;SDS011;29309;42.682;23.372;2023-05-07T00:49:43;3.70;;;3.15;;
43710;SDS011;29309;42.682;23.372;2023-05-07T00:52:11;6.85;;;2.83;;
43710;SDS011;29309;42.682;23.372;2023-05-07T00:54:41;3.63;;;2.45;;
43710;SDS011;29309;42.682;23.372;2023-05-07T00:57:07;5.10;;;2.38;;
43710;SDS011;29309;42.682;23.372;2023-05-07T00:59:34;3.90;;;2.70;;
43710;SDS011;29309;42.682;23.372;2023-05-07T01:02:00;7.22;;;2.85;;
43710;SDS011;29309;42.682;23.372;2023-05-07T01:04:26;4.20;;;2.80;;
43710;SDS011;29309;42.682;23.372;2023-05-07T01:06:52;3.63;;;1.90;;
43710;SDS011;29309;42.682;23.372;2023-05-07T01:09:21;4.70;;;2.47;;
43710;SDS011;29309;42.682;23.372;2023-05-07T01:11:47;2.58;;;1.90;;
43710;SDS011;29309;42.682;23.372;2023-05-07T01:14:15;2.15;;;1.38;;
43710;SDS011;29309;42.682;23.372;2023-05-07T01:16:41;2.40;;;1.60;;
43710;SDS011;29309;42.682;23.372;2023-05-07T01:19:11;4.53;;;1.58;;
43710;SDS011;29309;42.682;23.372;2023-05-07T01:21:41;2.25;;;1.88;;
43710;SDS011;29309;42.682;23.372;2023-05-07T01:24:11;2.17;;;1.48;;
43710;SDS011;29309;42.682;23.372;2023-05-07T01:26:36;2.67;;;1.60;;
43710;SDS011;29309;42.682;23.372;2023-05-07T01:29:02;2.30;;;1.38;;
43710;SDS011;29309;42.682;23.372;2023-05-07T01:31:28;2.25;;;1.45;;
43710;SDS011;29309;42.682;23.372;2023-05-07T01:33:54;1.20;;;0.68;;
43710;SDS011;29309;42.682;23.372;2023-05-07T01:36:21;2.70;;;1.45;;
43710;SDS011;29309;42.682;23.372;2023-05-07T01:38:50;1.90;;;1.15;;
43710;SDS011;29309;42.682;23.372;2023-05-07T01:41:17;3.22;;;1.63;;
43710;SDS011;29309;42.682;23.372;2023-05-07T01:43:44;1.98;;;1.30;;
43710;SDS011;29309;42.682;23.372;2023-05-07T01:46:11;2.63;;;1.48;;
43710;SDS011;29309;42.682;23.372;2023-05-07T01:48:38;2.60;;;1.55;;
43710;SDS011;29309;42.682;23.372;2023-05-07T01:51:04;2.75;;;1.52;;
43710;SDS011;29309;42.682;23.372;2023-05-07T01:53:40;1.98;;;1.70;;
43710;SDS011;29309;42.682;23.372;2023-05-07T01:56:05;2.53;;;1.52;;
43710;SDS011;29309;42.682;23.372;2023-05-07T01:58:31;3.92;;;2.15;;
43710;SDS011;29309;42.682;23.372;2023-05-07T02:00:57;2.75;;;2.05;;
43710;SDS011;29309;42.682;23.372;2023-05-07T02:03:22;1.73;;;1.38;;
43710;SDS011;29309;42.682;23.372;2023-05-07T02:05:48;2.25;;;1.65;;
43710;SDS011;29309;42.682;23.372;2023-05-07T02:08:13;2.80;;;2.03;;
43710;SDS011;29309;42.682;23.372;2023-05-07T02:10:39;2.10;;;1.63;;
43710;SDS011;29309;42.682;23.372;2023-05-07T02:13:04;4.65;;;1.88;;
43710;SDS011;29309;42.682;23.372;2023-05-07T02:15:30;3.40;;;1.85;;
43710;SDS011;29309;42.682;23.372;2023-05-07T02:17:59;2.65;;;2.10;;
43710;SDS011;29309;42.682;23.372;2023-05-07T02:20:29;2.35;;;1.83;;
43710;SDS011;29309;42.682;23.372;2023-05-07T02:22:54;4.70;;;2.10;;
43710;SDS011;29309;42.682;23.372;2023-05-07T02:25:20;3.00;;;2.15;;
43710;SDS011;29309;42.682;23.372;2023-05-07T02:27:45;3.10;;;1.85;;
43710;SDS011;29309;42.682;23.372;2023-05-07T02:30:11;3.95;;;2.38;;
43710;SDS011;29309;42.682;23.372;2023-05-07T02:32:36;3.72;;;1.88;;
43710;SDS011;29309;42.682;23.372;2023-05-07T02:35:02;4.28;;;2.63;;
43710;SDS011;29309;42.682;23.372;2023-05-07T02:37:27;5.82;;;2.88;;
43710;SDS011;29309;42.682;23.372;2023-05-07T02:39:53;2.63;;;2.03;;
43710;SDS011;29309;42.682;23.372;2023-05-07T02:42:18;3.72;;;2.47;;
43710;SDS011;29309;42.682;23.372;2023-05-07T02:44:44;2.40;;;1.88;;
43710;SDS011;29309;42.682;23.372;2023-05-07T02:47:09;5.95;;;2.15;;
43710;SDS011;29309;42.682;23.372;2023-05-07T02:49:35;4.72;;;2.15;;
43710;SDS011;29309;42.682;23.372;2023-05-07T02:52:00;4.65;;;2.58;;
43710;SDS011;29309;42.682;23.372;2023-05-07T02:54:26;6.63;;;2.60;;
43710;SDS011;29309;42.682;23.372;2023-05-07T02:56:51;4.13;;;2.70;;
43710;SDS011;29309;42.682;23.372;2023-05-07T02:59:17;4.50;;;2.42;;
43710;SDS011;29309;42.682;23.372;2023-05-07T03:01:43;3.50;;;2.30;;
43710;SDS011;29309;42.682;23.372;2023-05-07T03:04:10;5.15;;;2.53;;
43710;SDS011;29309;42.682;23.372;2023-05-07T03:06:36;3.60;;;2.70;;
43710;SDS011;29309;42.682;23.372;2023-05-07T03:09:01;6.47;;;2.72;;
43710;SDS011;29309;42.682;23.372;2023-05-07T03:11:28;5.43;;;2.50;;
43710;SDS011;29309;42.682;23.372;2023-05-07T03:13:53;5.20;;;2.75;;
43710;SDS011;29309;42.682;23.372;2023-05-07T03:16:19;5.63;;;3.42;;
43710;SDS011;29309;42.682;23.372;2023-05-07T03:18:44;4.93;;;2.58;;
43710;SDS011;29309;42.682;23.372;2023-05-07T03:21:10;6.03;;;3.15;;
43710;SDS011;29309;42.682;23.372;2023-05-07T03:23:35;6.05;;;2.95;;
43710;SDS011;29309;42.682;23.372;2023-05-07T03:26:01;6.43;;;3.00;;
43710;SDS011;29309;42.682;23.372;2023-05-07T03:28:26;4.82;;;3.33;;
43710;SDS011;29309;42.682;23.372;2023-05-07T03:30:51;4.97;;;3.53;;
43710;SDS011;29309;42.682;23.372;2023-05-07T03:33:17;5.18;;;3.33;;
43710;SDS011;29309;42.682;23.372;2023-05-07T03:35:43;6.35;;;3.42;;
43710;SDS011;29309;42.682;23.372;2023-05-07T03:38:08;6.78;;;3.42;;
43710;SDS011;29309;42.682;23.372;2023-05-07T03:40:33;6.53;;;3.33;;
43710;SDS011;29309;42.682;23.372;2023-05-07T03:43:00;5.70;;;3.80;;
43710;SDS011;29309;42.682;23.372;2023-05-07T03:45:25;6.22;;;3.63;;
43710;SDS011;29309;42.682;23.372;2023-05-07T03:47:51;7.72;;;2.90;;
43710;SDS011;29309;42.682;23.372;2023-05-07T03:50:16;7.75;;;4.18;;
43710;SDS011;29309;42.682;23.372;2023-05-07T03:52:42;8.43;;;3.40;;
43710;SDS011;29309;42.682;23.372;2023-05-07T03:55:07;4.32;;;2.65;;
43710;SDS011;29309;42.682;23.372;2023-05-07T03:57:33;4.15;;;3.17;;
43710;SDS011;29309;42.682;23.372;2023-05-07T03:59:59;5.47;;;3.30;;
43710;SDS011;29309;42.682;23.372;2023-05-07T04:02:24;3.83;;;3.05;;
43710;SDS011;29309;42.682;23.372;2023-05-07T04:04:50;4.65;;;2.65;;
43710;SDS011;29309;42.682;23.372;2023-05-07T04:07:15;4.75;;;2.50;;
43710;SDS011;29309;42.682;23.372;2023-05-07T04:09:41;7.47;;;3.55;;
43710;SDS011;29309;42.682;23.372;2023-05-07T04:12:06;6.57;;;3.00;;
43710;SDS011;29309;42.682;23.372;2023-05-07T04:14:32;3.90;;;3.00;;
43710;SDS011;29309;42.682;23.372;2023-05-07T04:16:58;4.15;;;2.53;;
43710;SDS011;29309;42.682;23.372;2023-05-07T04:19:24;5.93;;;3.47;;
43710;SDS011;29309;42.682;23.372;2023-05-07T04:21:50;4.20;;;2.83;;
43710;SDS011;29309;42.682;23.372;2023-05-07T04:24:15;4.22;;;2.70;;
43710;SDS011;29309;42.682;23.372;2023-05-07T04:26:41;5.22;;;3.00;;
43710;SDS011;29309;42.682;23.372;2023-05-07T04:29:06;7.40;;;3.30;;
43710;SDS011;29309;42.682;23.372;2023-05-07T04:31:32;4.82;;;3.40;;
43710;SDS011;29309;42.682;23.372;2023-05-07T04:33:57;6.78;;;3.25;;
43710;SDS011;29309;42.682;23.372;2023-05-07T04:36:23;6.80;;;3.28;;
43710;SDS011;29309;42.682;23.372;2023-05-07T04:38:52;6.80;;;2.95;;
43710;SDS011;29309;42.682;23.372;2023-05-07T04:41:18;4.60;;;3.03;;
43710;SDS011;29309;42.682;23.372;2023-05-07T04:43:43;4.63;;;3.28;;
43710;SDS011;29309;42.682;23.372;2023-05-07T04:46:09;7.00;;;3.55;;
43710;SDS011;29309;42.682;23.372;2023-05-07T04:48:35;7.22;;;3.78;;
43710;SDS011;29309;42.682;23.372;2023-05-07T04:51:00;6.90;;;3.72;;
43710;SDS011;29309;42.682;23.372;2023-05-07T04:53:26;7.03;;;3.42;;
43710;SDS011;29309;42.682;23.372;2023-05-07T04:55:54;5.65;;;3.10;;
43710;SDS011;29309;42.682;23.372;2023-05-07T04:58:21;4.82;;;2.85;;
43710;SDS011;29309;42.682;23.372;2023-05-07T05:00:47;6.75;;;3.45;;
43710;SDS011;29309;42.682;23.372;2023-05-07T05:03:13;4.43;;;2.95;;
43710;SDS011;29309;42.682;23.372;2023-05-07T05:05:38;5.03;;;3.70;;
43710;SDS011;29309;42.682;23.372;2023-05-07T05:08:04;6.32;;;3.35;;
43710;SDS011;29309;42.682;23.372;2023-05-07T05:10:29;10.70;;;2.55;;
43710;SDS011;29309;42.682;23.372;2023-05-07T05:12:55;4.45;;;3.65;;
43710;SDS011;29309;42.682;23.372;2023-05-07T05:15:20;7.28;;;2.55;;
43710;SDS011;29309;42.682;23.372;2023-05-07T05:17:45;4.38;;;2.60;;
43710;SDS011;29309;42.682;23.372;2023-05-07T05:20:11;3.35;;;2.03;;
43710;SDS011;29309;42.682;23.372;2023-05-07T05:22:37;2.45;;;1.75;;
43710;SDS011;29309;42.682;23.372;2023-05-07T05:25:03;3.75;;;2.28;;
43710;SDS011;29309;42.682;23.372;2023-05-07T05:27:28;2.90;;;2.08;;
43710;SDS011;29309;42.682;23.372;2023-05-07T05:29:54;4.45;;;2.00;;
43710;SDS011;29309;42.682;23.372;2023-05-07T05:32:19;5.28;;;2.20;;
43710;SDS011;29309;42.682;23.372;2023-05-07T05:34:45;4.13;;;2.33;;
43710;SDS011;29309;42.682;23.372;2023-05-07T05:37:10;3.38;;;1.90;;
43710;SDS011;29309;42.682;23.372;2023-05-07T05:39:36;4.57;;;2.53;;
43710;SDS011;29309;42.682;23.372;2023-05-07T05:42:01;2.97;;;2.10;;
43710;SDS011;29309;42.682;23.372;2023-05-07T05:44:27;3.35;;;2.10;;
43710;SDS011;29309;42.682;23.372;2023-05-07T05:46:52;3.60;;;1.95;;
43710;SDS011;29309;42.682;23.372;2023-05-07T05:49:20;3.22;;;2.22;;
43710;SDS011;29309;42.682;23.372;2023-05-07T05:51:46;2.90;;;2.28;;
43710;SDS011;29309;42.682;23.372;2023-05-07T05:54:11;4.85;;;3.03;;
43710;SDS011;29309;42.682;23.372;2023-05-07T05:56:37;5.18;;;2.40;;
43710;SDS011;29309;42.682;23.372;2023-05-07T05:59:03;5.03;;;3.38;;
43710;SDS011;29309;42.682;23.372;2023-05-07T06:01:28;5.40;;;2.92;;
43710;SDS011;29309;42.682;23.372;2023-05-07T06:03:54;5.13;;;2.50;;
43710;SDS011;29309;42.682;23.372;2023-05-07T06:06:19;3.17;;;2.22;;
43710;SDS011;29309;42.682;23.372;2023-05-07T06:08:45;4.35;;;2.58;;
43710;SDS011;29309;42.682;23.372;2023-05-07T06:11:10;3.50;;;2.25;;
43710;SDS011;29309;42.682;23.372;2023-05-07T06:13:36;4.03;;;2.47;;
43710;SDS011;29309;42.682;23.372;2023-05-07T06:16:01;3.75;;;2.83;;
43710;SDS011;29309;42.682;23.372;2023-05-07T06:18:27;3.97;;;2.88;;
43710;SDS011;29309;42.682;23.372;2023-05-07T06:20:52;4.20;;;2.58;;
43710;SDS011;29309;42.682;23.372;2023-05-07T06:23:18;4.68;;;2.63;;
43710;SDS011;29309;42.682;23.372;2023-05-07T06:25:49;3.85;;;2.42;;
43710;SDS011;29309;42.682;23.372;2023-05-07T06:28:15;3.50;;;2.10;;
43710;SDS011;29309;42.682;23.372;2023-05-07T06:30:41;4.85;;;2.50;;
43710;SDS011;29309;42.682;23.372;2023-05-07T06:33:06;4.38;;;2.60;;
43710;SDS011;29309;42.682;23.372;2023-05-07T06:35:32;4.32;;;2.70;;
43710;SDS011;29309;42.682;23.372;2023-05-07T06:37:57;4.95;;;2.45;;
43710;SDS011;29309;42.682;23.372;2023-05-07T06:40:23;3.88;;;2.13;;
43710;SDS011;29309;42.682;23.372;2023-05-07T06:42:48;3.50;;;2.70;;
43710;SDS011;29309;42.682;23.372;2023-05-07T06:45:14;3.42;;;2.15;;
43710;SDS011;29309;42.682;23.372;2023-05-07T06:47:39;5.05;;;3.20;;
43710;SDS011;29309;42.682;23.372;2023-05-07T06:50:05;3.58;;;2.35;;
43710;SDS011;29309;42.682;23.372;2023-05-07T06:52:30;3.53;;;1.95;;
43710;SDS011;29309;42.682;23.372;2023-05-07T06:54:56;3.92;;;2.60;;
43710;SDS011;29309;42.682;23.372;2023-05-07T06:57:21;4.35;;;3.10;;
43710;SDS011;29309;42.682;23.372;2023-05-07T06:59:47;3.88;;;2.38;;
43710;SDS011;29309;42.682;23.372;2023-05-07T07:02:12;4.22;;;2.83;;
43710;SDS011;29309;42.682;23.372;2023-05-07T07:04:37;3.88;;;2.47;;
43710;SDS011;29309;42.682;23.372;2023-05-07T07:07:03;3.60;;;2.35;;
43710;SDS011;29309;42.682;23.372;2023-05-07T07:09:28;4.00;;;2.65;;
43710;SDS011;29309;42.682;23.372;2023-05-07T07:11:54;3.70;;;2.67;;
43710;SDS011;29309;42.682;23.372;2023-05-07T07:14:19;4.32;;;2.72;;
43710;SDS011;29309;42.682;23.372;2023-05-07T07:16:45;4.40;;;2.85;;
43710;SDS011;29309;42.682;23.372;2023-05-07T07:19:11;4.70;;;2.72;;
43710;SDS011;29309;42.682;23.372;2023-05-07T07:21:37;4.47;;;2.90;;
43710;SDS011;29309;42.682;23.372;2023-05-07T07:24:02;4.30;;;2.97;;
43710;SDS011;29309;42.682;23.372;2023-05-07T07:26:28;4.10;;;2.53;;
43710;SDS011;29309;42.682;23.372;2023-05-07T07:28:53;5.22;;;3.55;;
43710;SDS011;29309;42.682;23.372;2023-05-07T07:31:19;4.38;;;3.22;;
43710;SDS011;29309;42.682;23.372;2023-05-07T07:33:44;5.18;;;3.15;;
43710;SDS011;29309;42.682;23.372;2023-05-07T07:36:10;4.90;;;3.22;;
43710;SDS011;29309;42.682;23.372;2023-05-07T07:38:35;5.05;;;2.60;;
43710;SDS011;29309;42.682;23.372;2023-05-07T07:41:01;3.25;;;2.70;;
43710;SDS011;29309;42.682;23.372;2023-05-07T07:43:27;3.28;;;2.40;;
43710;SDS011;29309;42.682;23.372;2023-05-07T07:45:52;6.55;;;2.72;;
43710;SDS011;29309;42.682;23.372;2023-05-07T07:48:18;5.55;;;2.60;;
43710;SDS011;29309;42.682;23.372;2023-05-07T07:50:43;3.10;;;2.63;;
43710;SDS011;29309;42.682;23.372;2023-05-07T07:53:09;3.88;;;2.83;;
43710;SDS011;29309;42.682;23.372;2023-05-07T07:55:38;4.80;;;2.70;;
43710;SDS011;29309;42.682;23.372;2023-05-07T07:58:06;3.92;;;2.75;;
43710;SDS011;29309;42.682;23.372;2023-05-07T08:00:31;4.93;;;2.95;;
43710;SDS011;29309;42.682;23.372;2023-05-07T08:02:57;4.05;;;2.65;;
43710;SDS011;29309;42.682;23.372;2023-05-07T08:05:22;5.18;;;3.03;;
43710;SDS011;29309;42.682;23.372;2023-05-07T08:07:48;4.68;;;2.88;;
43710;SDS011;29309;42.682;23.372;2023-05-07T08:10:18;3.78;;;2.35;;
43710;SDS011;29309;42.682;23.372;2023-05-07T08:12:47;3.67;;;2.88;;
43710;SDS011;29309;42.682;23.372;2023-05-07T08:15:13;3.65;;;2.42;;
43710;SDS011;29309;42.682;23.372;2023-05-07T08:17:39;4.57;;;3.30;;
43710;SDS011;29309;42.682;23.372;2023-05-07T08:20:05;3.58;;;1.98;;
43710;SDS011;29309;42.682;23.372;2023-05-07T08:22:31;5.47;;;3.25;;
43710;SDS011;29309;42.682;23.372;2023-05-07T08:24:57;3.55;;;2.55;;
43710;SDS011;29309;42.682;23.372;2023-05-07T08:27:22;2.63;;;2.22;;
43710;SDS011;29309;42.682;23.372;2023-05-07T08:29:47;3.92;;;2.40;;
43710;SDS011;29309;42.682;23.372;2023-05-07T08:32:13;3.97;;;2.28;;
43710;SDS011;29309;42.682;23.372;2023-05-07T08:34:39;4.25;;;3.10;;
43710;SDS011;29309;42.682;23.372;2023-05-07T08:37:05;3.67;;;2.47;;
43710;SDS011;29309;42.682;23.372;2023-05-07T08:39:30;7.53;;;2.97;;
43710;SDS011;29309;42.682;23.372;2023-05-07T08:41:55;4.90;;;2.88;;
43710;SDS011;29309;42.682;23.372;2023-05-07T08:44:26;2.85;;;2.22;;
43710;SDS011;29309;42.682;23.372;2023-05-07T08:46:53;3.17;;;2.15;;
43710;SDS011;29309;42.682;23.372;2023-05-07T08:49:20;3.55;;;2.10;;
43710;SDS011;29309;42.682;23.372;2023-05-07T08:51:46;2.20;;;1.98;;
43710;SDS011;29309;42.682;23.372;2023-05-07T08:54:12;3.53;;;2.58;;
43710;SDS011;29309;42.682;23.372;2023-05-07T08:56:41;2.47;;;1.85;;
43710;SDS011;29309;42.682;23.372;2023-05-07T08:59:06;3.13;;;2.03;;
43710;SDS011;29309;42.682;23.372;2023-05-07T09:01:32;3.17;;;1.45;;
43710;SDS011;29309;42.682;23.372;2023-05-07T09:04:00;2.25;;;1.70;;
43710;SDS011;29309;42.682;23.372;2023-05-07T09:06:26;2.53;;;1.52;;
43710;SDS011;29309;42.682;23.372;2023-05-07T09:08:52;2.97;;;2.13;;
43710;SDS011;29309;42.682;23.372;2023-05-07T09:11:22;2.25;;;1.67;;
43710;SDS011;29309;42.682;23.372;2023-05-07T09:13:49;2.20;;;1.60;;
43710;SDS011;29309;42.682;23.372;2023-05-07T09:16:20;2.92;;;1.58;;
43710;SDS011;29309;42.682;23.372;2023-05-07T09:18:47;1.20;;;1.00;;
43710;SDS011;29309;42.682;23.372;2023-05-07T09:21:16;2.17;;;1.42;;
43710;SDS011;29309;42.682;23.372;2023-05-07T09:23:42;1.95;;;1.45;;
43710;SDS011;29309;42.682;23.372;2023-05-07T09:26:08;2.42;;;1.63;;
43710;SDS011;29309;42.682;23.372;2023-05-07T09:28:42;2.85;;;2.05;;
43710;SDS011;29309;42.682;23.372;2023-05-07T09:31:08;2.95;;;1.73;;
43710;SDS011;29309;42.682;23.372;2023-05-07T09:33:35;2.10;;;1.60;;
43710;SDS011;29309;42.682;23.372;2023-05-07T09:36:04;1.88;;;1.73;;
43710;SDS011;29309;42.682;23.372;2023-05-07T09:38:30;1.67;;;1.20;;
43710;SDS011;29309;42.682;23.372;2023-05-07T09:43:37;2.22;;;1.15;;
43710;SDS011;29309;42.682;23.372;2023-05-07T09:46:08;4.70;;;1.75;;
43710;SDS011;29309;42.682;23.372;2023-05-07T09:48:37;1.52;;;1.33;;
43710;SDS011;29309;42.682;23.372;2023-05-07T09:51:20;1.52;;;1.35;;
43710;SDS011;29309;42.682;23.372;2023-05-07T09:53:52;2.28;;;1.52;;
43710;SDS011;29309;42.682;23.372;2023-05-07T09:56:18;1.95;;;1.35;;
43710;SDS011;29309;42.682;23.372;2023-05-07T09:58:45;1.67;;;1.25;;
43710;SDS011;29309;42.682;23.372;2023-05-07T10:01:12;2.85;;;1.40;;
43710;SDS011;29309;42.682;23.372;2023-05-07T10:03:39;1.40;;;1.05;;
43710;SDS011;29309;42.682;23.372;2023-05-07T10:06:07;1.75;;;1.30;;
43710;SDS011;29309;42.682;23.372;2023-05-07T10:08:34;1.45;;;1.08;;
43710;SDS011;29309;42.682;23.372;2023-05-07T10:11:01;1.35;;;0.88;;
43710;SDS011;29309;42.682;23.372;2023-05-07T10:13:28;3.65;;;1.38;;
43710;SDS011;29309;42.682;23.372;2023-05-07T10:15:54;2.58;;;1.23;;
43710;SDS011;29309;42.682;23.372;2023-05-07T10:18:20;1.42;;;1.08;;
43710;SDS011;29309;42.682;23.372;2023-05-07T10:20:54;2.95;;;1.23;;
43710;SDS011;29309;42.682;23.372;2023-05-07T10:23:24;0.93;;;0.70;;
43710;SDS011;29309;42.682;23.372;2023-05-07T10:25:52;1.08;;;0.90;;
43710;SDS011;29309;42.682;23.372;2023-05-07T10:28:19;8.82;;;2.15;;
43710;SDS011;29309;42.682;23.372;2023-05-07T10:33:26;1.35;;;0.85;;
43710;SDS011;29309;42.682;23.372;2023-05-07T10:35:58;0.85;;;0.82;;
43710;SDS011;29309;42.682;23.372;2023-05-07T10:38:25;2.00;;;0.95;;
43710;SDS011;29309;42.682;23.372;2023-05-07T10:40:52;1.85;;;0.90;;
43710;SDS011;29309;42.682;23.372;2023-05-07T10:43:18;1.23;;;0.85;;
43710;SDS011;29309;42.682;23.372;2023-05-07T10:45:44;1.27;;;0.93;;
43710;SDS011;29309;42.682;23.372;2023-05-07T10:51:26;2.28;;;1.08;;
43710;SDS011;29309;42.682;23.372;2023-05-07T10:56:37;2.20;;;1.63;;
43710;SDS011;29309;42.682;23.372;2023-05-07T11:04:19;1.70;;;1.30;;
43710;SDS011;29309;42.682;23.372;2023-05-07T11:07:31;1.30;;;1.13;;
43710;SDS011;29309;42.682;23.372;2023-05-07T11:15:04;1.77;;;1.20;;
43710;SDS011;29309;42.682;23.372;2023-05-07T11:20:38;0.85;;;0.85;;
43710;SDS011;29309;42.682;23.372;2023-05-07T11:23:45;2.38;;;1.30;;
43710;SDS011;29309;42.682;23.372;2023-05-07T11:28:27;1.20;;;1.10;;
43710;SDS011;29309;42.682;23.372;2023-05-07T11:30:53;3.35;;;1.10;;
43710;SDS011;29309;42.682;23.372;2023-05-07T11:33:19;1.45;;;1.30;;
43710;SDS011;29309;42.682;23.372;2023-05-07T11:35:45;1.20;;;1.10;;
43710;SDS011;29309;42.682;23.372;2023-05-07T11:38:11;1.38;;;1.27;;
43710;SDS011;29309;42.682;23.372;2023-05-07T11:40:50;1.00;;;0.90;;
43710;SDS011;29309;42.682;23.372;2023-05-07T11:43:16;1.30;;;0.93;;
43710;SDS011;29309;42.682;23.372;2023-05-07T11:45:42;1.80;;;1.20;;
43710;SDS011;29309;42.682;23.372;2023-05-07T11:48:09;1.80;;;1.02;;
43710;SDS011;29309;42.682;23.372;2023-05-07T11:50:34;1.63;;;1.20;;
43710;SDS011;29309;42.682;23.372;2023-05-07T11:53:00;3.95;;;1.15;;
43710;SDS011;29309;42.682;23.372;2023-05-07T11:55:32;1.10;;;1.00;;
43710;SDS011;29309;42.682;23.372;2023-05-07T11:57:57;1.60;;;1.10;;
43710;SDS011;29309;42.682;23.372;2023-05-07T12:00:23;1.50;;;0.90;;
43710;SDS011;29309;42.682;23.372;2023-05-07T12:02:48;2.83;;;1.45;;
43710;SDS011;29309;42.682;23.372;2023-05-07T12:05:13;1.60;;;1.25;;
43710;SDS011;29309;42.682;23.372;2023-05-07T12:07:39;1.98;;;1.30;;
43710;SDS011;29309;42.682;23.372;2023-05-07T12:10:05;1.90;;;1.23;;
43710;SDS011;29309;42.682;23.372;2023-05-07T12:12:37;1.77;;;1.60;;
43710;SDS011;29309;42.682;23.372;2023-05-07T12:15:03;1.48;;;1.17;;
43710;SDS011;29309;42.682;23.372;2023-05-07T12:17:29;1.30;;;0.90;;
43710;SDS011;29309;42.682;23.372;2023-05-07T12:19:54;3.33;;;1.50;;
43710;SDS011;29309;42.682;23.372;2023-05-07T12:22:20;1.83;;;1.27;;
43710;SDS011;29309;42.682;23.372;2023-05-07T12:27:21;3.25;;;1.30;;
43710;SDS011;29309;42.682;23.372;2023-05-07T12:29:47;6.30;;;1.10;;
43710;SDS011;29309;42.682;23.372;2023-05-07T12:32:17;1.73;;;1.00;;
43710;SDS011;29309;42.682;23.372;2023-05-07T12:34:43;2.85;;;1.40;;
43710;SDS011;29309;42.682;23.372;2023-05-07T12:37:10;2.97;;;1.42;;
43710;SDS011;29309;42.682;23.372;2023-05-07T12:39:35;1.02;;;0.88;;
43710;SDS011;29309;42.682;23.372;2023-05-07T12:42:15;1.27;;;0.85;;
43710;SDS011;29309;42.682;23.372;2023-05-07T12:44:41;1.77;;;1.17;;
43710;SDS011;29309;42.682;23.372;2023-05-07T12:47:10;1.55;;;1.40;;
43710;SDS011;29309;42.682;23.372;2023-05-07T12:49:35;1.25;;;1.15;;
43710;SDS011;29309;42.682;23.372;2023-05-07T12:52:03;2.33;;;1.02;;
43710;SDS011;29309;42.682;23.372;2023-05-07T12:54:34;2.15;;;0.98;;
43710;SDS011;29309;42.682;23.372;2023-05-07T12:57:08;1.33;;;1.02;;
43710;SDS011;29309;42.682;23.372;2023-05-07T12:59:36;0.95;;;0.60;;
43710;SDS011;29309;42.682;23.372;2023-05-07T13:02:02;1.15;;;0.88;;
43710;SDS011;29309;42.682;23.372;2023-05-07T13:04:28;0.82;;;0.80;;
43710;SDS011;29309;42.682;23.372;2023-05-07T13:06:53;1.55;;;1.02;;
43710;SDS011;29309;42.682;23.372;2023-05-07T13:09:19;1.17;;;0.95;;
43710;SDS011;29309;42.682;23.372;2023-05-07T13:11:44;1.10;;;0.82;;
43710;SDS011;29309;42.682;23.372;2023-05-07T13:14:10;1.77;;;0.88;;
43710;SDS011;29309;42.682;23.372;2023-05-07T13:16:37;0.95;;;0.60;;
43710;SDS011;29309;42.682;23.372;2023-05-07T13:19:03;1.80;;;1.23;;
43710;SDS011;29309;42.682;23.372;2023-05-07T13:21:29;1.08;;;0.60;;
43710;SDS011;29309;42.682;23.372;2023-05-07T13:23:57;1.13;;;0.80;;
43710;SDS011;29309;42.682;23.372;2023-05-07T13:26:23;1.55;;;0.90;;
43710;SDS011;29309;42.682;23.372;2023-05-07T13:28:48;1.35;;;0.90;;
43710;SDS011;29309;42.682;23.372;2023-05-07T13:31:14;1.00;;;0.68;;
43710;SDS011;29309;42.682;23.372;2023-05-07T13:33:39;5.45;;;3.47;;
43710;SDS011;29309;42.682;23.372;2023-05-07T13:36:05;2.05;;;1.38;;
43710;SDS011;29309;42.682;23.372;2023-05-07T13:38:31;1.50;;;1.02;;
43710;SDS011;29309;42.682;23.372;2023-05-07T13:40:56;2.22;;;1.10;;
43710;SDS011;29309;42.682;23.372;2023-05-07T13:43:21;1.40;;;1.30;;
43710;SDS011;29309;42.682;23.372;2023-05-07T13:45:47;0.75;;;0.65;;
43710;SDS011;29309;42.682;23.372;2023-05-07T13:48:12;1.50;;;1.33;;
43710;SDS011;29309;42.682;23.372;2023-05-07T13:50:38;1.67;;;1.20;;
43710;SDS011;29309;42.682;23.372;2023-05-07T13:53:03;1.42;;;1.27;;
43710;SDS011;29309;42.682;23.372;2023-05-07T13:55:29;1.42;;;1.10;;
43710;SDS011;29309;42.682;23.372;2023-05-07T13:57:55;1.30;;;1.20;;
43710;SDS011;29309;42.682;23.372;2023-05-07T14:00:22;0.95;;;0.68;;
43710;SDS011;29309;42.682;23.372;2023-05-07T14:02:48;1.45;;;0.90;;
43710;SDS011;29309;42.682;23.372;2023-05-07T14:05:14;1.10;;;1.00;;
43710;SDS011;29309;42.682;23.372;2023-05-07T14:07:39;1.48;;;0.93;;
43710;SDS011;29309;42.682;23.372;2023-05-07T14:10:05;1.15;;;0.88;;
43710;SDS011;29309;42.682;23.372;2023-05-07T14:12:31;1.08;;;0.98;;
43710;SDS011;29309;42.682;23.372;2023-05-07T14:14:57;1.00;;;0.80;;
43710;SDS011;29309;42.682;23.372;2023-05-07T14:17:23;1.42;;;0.82;;
43710;SDS011;29309;42.682;23.372;2023-05-07T14:19:51;1.10;;;0.88;;
43710;SDS011;29309;42.682;23.372;2023-05-07T14:22:19;1.00;;;0.80;;
43710;SDS011;29309;42.682;23.372;2023-05-07T14:24:45;0.70;;;0.70;;
43710;SDS011;29309;42.682;23.372;2023-05-07T14:27:10;1.73;;;1.10;;
43710;SDS011;29309;42.682;23.372;2023-05-07T14:29:36;1.58;;;1.30;;
43710;SDS011;29309;42.682;23.372;2023-05-07T14:32:02;1.10;;;0.90;;
43710;SDS011;29309;42.682;23.372;2023-05-07T14:34:28;1.83;;;1.13;;
43710;SDS011;29309;42.682;23.372;2023-05-07T14:36:54;9.85;;;4.32;;
43710;SDS011;29309;42.682;23.372;2023-05-07T14:39:20;10.63;;;5.07;;
43710;SDS011;29309;42.682;23.372;2023-05-07T14:41:45;2.38;;;1.40;;
43710;SDS011;29309;42.682;23.372;2023-05-07T14:44:11;2.38;;;1.10;;
43710;SDS011;29309;42.682;23.372;2023-05-07T14:46:36;1.23;;;0.60;;
43710;SDS011;29309;42.682;23.372;2023-05-07T14:49:02;1.13;;;0.82;;
43710;SDS011;29309;42.682;23.372;2023-05-07T14:51:27;1.63;;;1.10;;
43710;SDS011;29309;42.682;23.372;2023-05-07T14:53:53;2.05;;;0.80;;
43710;SDS011;29309;42.682;23.372;2023-05-07T14:56:19;1.10;;;0.90;;
43710;SDS011;29309;42.682;23.372;2023-05-07T14:58:46;0.98;;;0.80;;